Latest Coastal Weather Observations for Adelaide Airport

IDS60701

Issued at 2:32 pm CDT Thursday 5 March 2015 (issued every 10 minutes, with the page automatically refreshed every 10 minutes)

About coastal observations | Map of coastal stations | Coastal observations for SA | Marine services | Other Formats
Station Details ID: 023034 Name: ADELAIDE AIRPORT Lat: -34.95 Lon: 138.52 Height: 2.0 m
Data from the previous 72 hours. | See also: Recent months at Adelaide Airport
Date/Time
CDT
Temp

°C
Wind Pressure Rain
since 9am
mm
Weather Cloud Vis
km
Sea
Height
m
Swell
Dir
 
Speed
knots
Gust
knots
hPa Trend Height
m
Period
s
Dir
05/02:30pm 19.9 SW 19 25 1021.8 - 0.0 - - 10 - - - -
05/02:00pm 20.5 SW 19 22 1021.9 - 0.0 - - 10 - - - -
05/01:30pm 20.6 SSW 10 15 1022.0 - 0.0 - - 10 - - - -
05/12:30pm 19.5 SE 9 15 1022.7 - 0.0 - Mostly clear 10 - - - -
05/11:30am 20.1 SSE 13 19 1023.5 - 0.0 - Mostly clear 10 - - - -
05/11:00am 19.1 S 11 16 1023.4 - 0.0 - Mostly clear 10 - - - -
05/10:30am 18.9 SSE 11 17 1023.5 - 0.0 - Mostly clear 10 - - - -
05/10:00am 18.3 SE 11 15 1023.2 - 0.0 - Mostly clear 10 - - - -
05/09:30am 17.8 SE 14 17 1022.8 - 0.0 - Partly cloudy 10 - - - -
05/09:00am 17.0 S 10 15 1022.8 R 0.0 Haze Cloudy 15 - - - -
05/08:30am 16.8 S 9 13 1022.1 - 0.0 - Mostly clear 10 - - - -
05/08:00am 16.1 S 11 14 1021.7 - 0.0 - Mostly clear 10 - - - -
05/07:30am 16.1 S 12 16 1021.5 - 0.0 - Mostly clear 10 - - - -
05/07:00am 16.3 S 8 10 1021.3 - 0.0 - Mostly clear 10 - - - -
05/06:30am 16.5 S 11 15 1020.6 - 0.0 - Mostly clear 10 - - - -
05/06:00am 16.7 S 7 11 1020.2 R 0.0 Fine Mostly cloudy 20 - - - -
05/05:30am 16.9 S 9 13 1020.1 - 0.0 - Partly cloudy 10 - - - -
05/05:00am 16.8 S 12 16 1020.0 - 0.0 - Mostly clear 10 - - - -
05/04:30am 17.2 S 14 21 1019.6 - 0.0 - Mostly clear 10 - - - -
05/03:30am 18.0 S 18 24 1019.3 - 0.0 - Mostly clear 10 - - - -
05/03:00am 18.1 S 13 18 1018.9 R 0.0 Recent precip. Mostly cloudy 20 - - - -
05/02:30am 18.1 S 14 19 1019.2 - 0.0 Showers Mostly clear 10 - - - -
05/02:13am 18.1 SSW 18 28 1019.2 - 0.0 - Mostly clear 10 - - - -
05/02:00am 18.6 SSW 17 22 1019.0 - 0.0 - Mostly clear 10 - - - -
05/01:30am 18.2 SSW 21 30 1019.5 - 0.0 - Mostly clear 10 - - - -
05/01:00am 19.0 SW 20 26 1019.0 - 0.0 - Mostly clear 10 - - - -
05/12:30am 18.8 WSW 19 27 1019.0 - 0.0 - Mostly clear 10 - - - -
 
Date/Time
CDT
Temp

°C
Wind Pressure Rain
since 9am
mm
Weather Cloud Vis
km
Sea
Height
m
Swell
Dir
 
Speed
knots
Gust
knots
hPa Trend Height
m
Period
s
Dir
04/11:30pm 18.8 SW 16 21 1018.7 - 0.0 - Partly cloudy 10 - - - -
04/11:00pm 19.1 WSW 16 19 1018.9 - 0.0 - Mostly clear 10 - - - -
04/10:30pm 19.3 WSW 17 21 1019.2 - 0.0 - Mostly clear 10 - - - -
04/10:00pm 18.7 WSW 20 25 1018.9 - 0.0 - Mostly clear 10 - - - -
04/09:30pm 19.4 WSW 19 26 1018.4 - 0.0 - Mostly clear 10 - - - -
04/09:00pm 19.5 WSW 20 27 1018.0 F 0.0 Fine Mostly cloudy 35 - - - -
04/08:30pm 19.5 WSW 19 23 1017.8 - 0.0 - Mostly clear 10 - - - -
04/08:00pm 19.5 WSW 19 24 1017.4 - 0.0 - Mostly clear 10 - - - -
04/07:30pm 19.6 WSW 18 22 1017.4 - 0.0 - Mostly clear 10 - - - -
04/07:00pm 20.5 WSW 16 19 1017.1 - 0.0 - Mostly clear 10 - - - -
04/06:30pm 20.8 WSW 19 22 1017.2 - 0.0 - Mostly clear 10 - - - -
04/06:00pm 21.2 SW 15 18 1017.0 F 0.0 Fine Partly cloudy 40 - - - -
04/05:30pm 21.7 SW 16 20 1016.9 - 0.0 - Mostly clear 10 - - - -
04/05:00pm 21.4 SW 15 19 1017.0 - 0.0 - Mostly clear 10 - - - -
04/04:30pm 21.6 SW 14 17 1017.1 - 0.0 - Mostly clear 10 - - - -
04/04:00pm 21.4 SW 8 16 1017.2 - 0.0 - Mostly clear 10 - - - -
04/03:30pm 20.6 SW 10 14 1017.6 - 0.0 - Mostly clear 10 - - - -
04/03:00pm 21.0 SW 10 16 1018.1 R 0.0 Fine Partly cloudy 35 - - - -
04/02:30pm 20.5 SW 12 16 1018.4 - 0.0 - Mostly clear 10 - - - -
04/02:00pm 20.4 SSW 11 16 1018.6 - 0.0 - Mostly clear 10 - - - -
04/01:30pm 20.6 SSW 12 18 1018.9 - 0.0 - Mostly clear 10 - - - -
04/01:00pm 21.1 SW 14 18 1019.0 - 0.0 - Mostly clear 10 - - - -
04/12:30pm 20.5 WSW 14 17 1019.4 - 0.0 - Mostly clear 10 - - - -
04/12:00pm 19.9 SW 13 17 1019.5 R 0.0 Fine Mostly cloudy 30 - - - -
04/11:30am 19.7 WSW 10 16 1019.7 - 0.0 - Partly cloudy 10 - - - -
04/11:00am 20.5 W 9 13 1019.5 - 0.0 - Partly cloudy 10 - - - -
04/10:30am 19.9 WSW 8 11 1019.6 - 0.0 - Partly cloudy 10 - - - -
04/10:00am 20.0 SW 9 13 1019.4 - 0.0 - Mostly cloudy 10 - - - -
04/09:30am 17.9 SW 4 6 1019.4 - 0.0 - Mostly clear 10 - - - -
04/09:00am 17.5 SE 4 7 1019.1 F 0.0 Fine Mostly cloudy 30 - - - -
04/08:30am 16.6 E 5 6 1019.1 - 0.0 - Mostly clear 10 - - - -
04/08:00am 15.5 ENE 5 6 1019.0 - 0.0 - Mostly cloudy 10 - - - -
04/07:30am 13.6 E 5 5 1018.5 - 0.0 - Partly cloudy 10 - - - -
04/07:00am 13.6 E 5 5 1018.2 - 0.0 - Mostly clear 10 - - - -
04/06:30am 14.1 ESE 5 6 1018.2 - 0.0 - Mostly clear 10 - - - -
04/06:00am 13.2 SSE 5 7 1017.9 F 0.0 Fine Mostly cloudy 40 - - - -
04/05:30am 13.0 SSE 5 6 1017.9 - 0.0 - - 10 - - - -
04/05:00am 13.2 S 5 5 1017.8 - 0.0 - - 10 - - - -
04/04:30am 13.8 S 5 6 1017.6 - 0.0 - - 10 - - - -
04/04:00am 13.8 SSE 6 7 1017.6 - 0.0 - - 10 - - - -
04/03:30am 14.7 S 5 6 1017.9 - 0.0 - - 10 - - - -
04/03:00am 14.9 S 4 5 1018.2 R 0.0 Fine Mostly cloudy 40 - - - -
04/02:30am 14.9 S 6 7 1018.4 - 0.0 - - 10 - - - -
04/02:00am 15.4 S 5 6 1018.9 - 0.0 - - 10 - - - -
04/01:30am 15.2 S 5 7 1018.9 - 0.0 - - 10 - - - -
04/01:00am 15.9 SSW 7 8 1018.8 - 0.0 - - 10 - - - -
04/12:30am 15.8 S 7 9 1018.9 - 0.0 - - 10 - - - -
04/12:00am 16.3 S 8 12 1019.0 R 0.0 Fine Partly cloudy 40 - - - -
 
Date/Time
CDT
Temp

°C
Wind Pressure Rain
since 9am
mm
Weather Cloud Vis
km
Sea
Height
m
Swell
Dir
 
Speed
knots
Gust
knots
hPa Trend Height
m
Period
s
Dir
03/11:30pm 16.9 SSE 10 13 1019.1 - 0.0 - - 10 - - - -
03/11:00pm 17.2 SSE 10 13 1019.1 - 0.0 - Mostly clear 10 - - - -
03/10:30pm 17.4 SSE 12 17 1018.9 - 0.0 - - 10 - - - -
03/10:00pm 17.5 SSE 11 14 1018.7 - 0.0 - - 10 - - - -
03/09:30pm 18.0 SSE 11 16 1018.4 - 0.0 - - 10 - - - -
03/09:00pm 18.5 SSE 15 19 1018.1 R 0.0 Fine Partly cloudy 40 - - - -
03/08:30pm 19.4 S 13 16 1017.5 - 0.0 - - 10 - - - -
03/08:00pm 20.2 S 12 16 1017.0 - 0.0 - - 10 - - - -
03/07:30pm 21.6 S 14 18 1016.5 - 0.0 - - 10 - - - -
03/07:00pm 22.9 S 12 17 1016.1 - 0.0 - - 10 - - - -
03/06:30pm 23.9 S 13 17 1015.7 - 0.0 - - 10 - - - -
03/06:00pm 24.9 SSE 11 14 1015.5 S 0.0 Fine Partly cloudy 30 - - - -
03/05:30pm 25.5 S 12 17 1015.4 - 0.0 - - 10 - - - -
03/05:00pm 26.1 S 10 13 1015.2 - 0.0 - - 10 - - - -
03/04:30pm 26.1 SSW 10 15 1015.2 - 0.0 - - 10 - - - -
03/04:00pm 25.6 S 12 17 1015.2 - 0.0 - - 10 - - - -
03/03:30pm 25.5 SW 15 20 1015.4 - 0.0 - - 10 - - - -
03/03:00pm 24.4 SW 19 23 1015.9 F 0.0 Fine Partly cloudy 30 - - - -
03/02:30pm 24.8 SW 17 21 1016.1 - 0.0 - - 10 - - - -
03/02:00pm 24.0 SW 17 21 1016.4 - 0.0 - - 10 - - - -
03/01:30pm 22.8 SW 17 21 1016.8 - 0.0 - - 10 - - - -
03/01:00pm 23.3 SW 14 18 1017.1 - 0.0 - Mostly clear 10 - - - -
03/12:30pm 23.5 SW 11 16 1017.6 - 0.0 - Mostly clear 10 - - - -
03/12:00pm 24.1 SSW 6 10 1018.1 S 0.0 Fine Partly cloudy 30 - - - -
03/11:30am 23.0 SSW 7 11 1018.4 - 0.0 - Mostly clear 10 - - - -
03/11:00am 22.6 SE 5 8 1018.5 - 0.0 - Mostly clear 10 - - - -
03/10:30am 21.8 SE 4 7 1018.3 - 0.0 - Mostly clear 10 - - - -
03/10:00am 21.4 E 5 8 1018.4 - 0.0 - Mostly clear 10 - - - -
03/09:30am 20.0 ESE 5 9 1018.2 - 0.0 - Mostly clear 10 - - - -
03/09:00am 19.4 ESE 7 9 1018.1 R 0.0 Fine Partly cloudy 30 - - - -
03/08:30am 18.4 ESE 7 9 1017.7 - 0.0 - Mostly clear 10 - - - -
03/08:00am 17.3 SSE 7 9 1017.3 - 0.0 - Mostly clear 10 - - - -
03/07:30am 15.9 S 6 6 1016.9 - 0.0 - Mostly clear 10 - - - -
03/07:00am 16.7 ESE 7 9 1016.2 - 0.0 - - 10 - - - -
03/06:30am 16.0 SE 7 9 1015.9 - 0.0 - - 10 - - - -
03/06:00am 15.8 SE 9 13 1016.1 R 0.0 Fine Partly cloudy 30 - - - -
03/05:30am 15.5 SE 8 10 1015.7 - 0.0 - Mostly clear 10 - - - -
03/05:00am 16.1 SE 6 8 1015.5 - 0.0 - Mostly clear 10 - - - -
03/04:30am 16.4 ESE 7 8 1015.5 - 0.0 - Mostly clear 10 - - - -
03/04:00am 17.4 SE 8 9 1015.4 - 0.0 - Mostly clear 10 - - - -
03/03:30am 17.5 SE 10 13 1015.5 - 0.0 - Mostly clear 10 - - - -
03/03:00am 17.8 S 9 11 1015.7 R 0.0 Fine Mostly cloudy 30 - - - -
03/02:30am 18.0 SE 9 12 1015.6 - 0.0 - Mostly clear 10 - - - -
03/02:00am 18.1 SSE 7 9 1015.7 - 0.0 - Mostly clear 10 - - - -
03/01:30am 18.5 ESE 9 14 1015.9 - 0.0 - Mostly clear 10 - - - -
03/01:00am 18.7 SSE 9 11 1015.9 - 0.0 - Mostly clear 10 - - - -
03/12:30am 19.2 S 8 14 1015.9 - 0.0 - Mostly clear 10 - - - -
03/12:00am 19.5 SE 7 9 1015.8 R 0.0 Recent precip. Cloudy 30 - - - -
 
Date/Time
CDT
Temp

°C
Wind Pressure Rain
since 9am
mm
Weather Cloud Vis
km
Sea
Height
m
Swell
Dir
 
Speed
knots
Gust
knots
hPa Trend Height
m
Period
s
Dir
02/11:30pm 19.7 S 7 9 1015.8 - 0.0 - Partly cloudy 10 - - - -
02/11:00pm 20.2 S 6 8 1015.9 - 0.0 Rain Mostly clear 10 - - - -
02/10:30pm 20.2 SSE 5 7 1016.0 - 0.0 - Partly cloudy 10 - - - -
02/10:00pm 20.3 SSE 6 8 1016.0 - 0.0 Rain Partly cloudy 10 - - - -
02/09:30pm 20.7 S 6 12 1015.8 - 0.0 Rain Partly cloudy 10 - - - -
02/09:00pm 20.8 SW 11 15 1015.6 R 0.0 Recent precip. Cloudy 30 - - - -
02/08:30pm 21.8 SW 11 15 1015.1 - 0.0 Rain Partly cloudy 10 - - - -
02/08:00pm 22.3 SSW 7 11 1014.6 - 0.0 - Partly cloudy 10 - - - -
02/07:30pm 22.2 SSW 8 11 1014.3 - 0.0 - Partly cloudy 10 - - - -
02/07:00pm 22.5 SSW 9 14 1014.1 - 0.0 - Partly cloudy 10 - - - -
02/06:30pm 23.2 SSW 8 11 1013.7 - 0.0 - Partly cloudy 10 - - - -
02/06:00pm 23.7 SSW 9 12 1013.3 R 0.0 Fine Mostly cloudy 30 - - - -
02/05:30pm 23.6 SSW 8 10 1013.4 - 0.0 - - 10 - - - -
02/05:00pm 23.5 SSW 6 7 1013.1 - 0.0 - - 10 - - - -
02/04:30pm 23.0 SSW 9 10 1012.9 - 0.0 - - 10 - - - -
02/04:00pm 22.9 SSW 7 9 1013.3 - 0.0 - - 10 - - - -
02/03:30pm 22.9 SSW 9 12 1013.4 - 0.0 - - 10 - - - -
02/03:00pm 22.8 SSW 11 13 1013.5 R 0.0 Fine Mostly cloudy 30 - - - -

Other Formats:

Comma delimited format used in spreadsheet applications
http://www.bom.gov.au/fwo/IDS60701/IDS60701.94672.axf

JavaScript Object Notation format (JSON) in row-major order
http://www.bom.gov.au/fwo/IDS60701/IDS60701.94672.json